• Join FlightAware (Why Join?)
  • Login
  • US Flag 
09:58AM EDT


 

Airport Tracker/Info


-or-


 

Live Flight TrackerFlight Track Log ✈ HPJ96 ✈ 08-May-2013 ✈ KTEB - KPGA

Flight Track Log - Related Links

Times and Time Zones

All times are in EDT time to prevent confusion due to time zone crossing. See the HPJ96 flight status page for this flight to view local times or setup timezone preferences in your user account.

Time Position Orientation Groundspeed Altitude Reporting Facility
EDT Latitude Longitude Course Direction KTS MPH feet Rate Location/Type
02:36PM 40.9000 -74.0500 270° West 222 255 1,700  Level New York TRACON
02:37PM 40.9333 -74.1167 304° West 231 266 3,100 2,220 Climbing New York TRACON
02:40PM 40.9378 -74.3117 272° West 257 296 8,700 2,940 Climbing New York Center
02:41PM 40.9347 -74.4106 268° West 293 337 12,300 2,880 Climbing New York Center
02:42PM 40.9000 -74.9678 270° West  Level FlightAware Approximate
02:42PM 40.9325 -74.5475 269° West 321 369 14,500  Level New York Center
02:43PM 40.9283 -74.6711 267° West 367 422 16,600 1,200 Climbing New York Center
02:44PM 40.9042 -74.8317 259° West 402 463 17,000 900 Climbing New York Center
02:45PM 40.8808 -74.9647 257° West 417 480 18,500 1,920 Climbing New York Center
02:46PM 40.8542 -75.1303 258° West 422 486 20,900 2,400 Climbing New York Center
02:47PM 40.8322 -75.2717 258° West 434 499 23,300 2,400 Climbing New York Center
02:48PM 40.8033 -75.4233 256° West 434 499 25,700 2,340 Climbing New York Center
02:49PM 40.7783 -75.5806 258° West 439 505 28,100 2,400 Climbing New York Center
02:50PM 40.7503 -75.7511 258° West 439 505 30,600 2,460 Climbing New York Center
02:51PM 40.7067 -75.8931 248° West 439 505 33,000 2,460 Climbing New York Center
02:52PM 40.6525 -76.0367 244° Southwest 437 503 35,500 2,280 Climbing New York Center
02:53PM 40.6150 -76.1733 250° West 422 486 37,700 1,200 Climbing New York Center
02:54PM 40.6289 -76.3247 277° West 404 465 38,000 120 Climbing New York Center
02:55PM 40.6569 -76.4775 284° West 412 474 38,000  Level New York Center
02:56PM 40.6825 -76.6411 282° West 438 504 38,000  Level New York Center
02:57PM 40.7056 -76.8047 281° West 450 518 38,000  Level New York Center
02:58PM 40.7306 -76.9658 282° West 450 518 38,000  Level New York Center
02:59PM 40.7533 -77.1267 281° West 450 518 38,000  Level New York Center
03:00PM 40.7758 -77.2878 280° West 450 518 38,000  Level New York Center
03:01PM 40.7950 -77.4294 280° West 450 518 38,000  Level New York Center
03:03PM 40.8508 -77.8161 281° West 448 516 38,000  Level Cleveland Center
03:04PM 40.8714 -77.9800 279° West 448 516 38,000  Level Cleveland Center
03:05PM 40.8939 -78.1439 280° West 454 522 38,000  Level Cleveland Center
03:06PM 40.9181 -78.3106 281° West 461 531 38,000  Level Cleveland Center
03:07PM 40.9400 -78.4775 280° West 467 537 38,000  Level Cleveland Center
03:08PM 40.9639 -78.6444 281° West 467 537 38,000  Level Cleveland Center
03:09PM 40.9853 -78.8117 280° West 467 537 38,000  Level Cleveland Center
03:10PM 41.0064 -78.9761 280° West 467 537 38,000  Level Cleveland Center
03:11PM 41.0256 -79.1519 278° West 467 537 38,000  Level Cleveland Center
03:12PM 41.0461 -79.3167 279° West 467 537 38,000  Level Cleveland Center
03:13PM 41.0689 -79.4869 280° West 467 537 38,000 300 Level Cleveland Center
03:14PM 41.0869 -79.6547 278° West 467 537 38,600 900 Climbing Cleveland Center
03:15PM 41.1069 -79.8197 279° West 467 537 39,900 660 Climbing Cleveland Center
03:16PM 41.1247 -79.9822 278° West 467 537 40,000  Climbing Cleveland Center
03:17PM 41.1442 -80.1475 279° West 467 537 40,000  Level Cleveland Center
03:18PM 41.1633 -80.3156 279° West 467 537 40,000  Level Cleveland Center
03:19PM 41.1825 -80.4756 279° West 462 532 40,000  Level Cleveland Center
03:20PM 41.1992 -80.6411 278° West 462 532 40,000  Level Cleveland Center
03:21PM 41.2178 -80.8011 279° West 455 524 40,000  Level Cleveland Center
03:22PM 41.2361 -80.9642 279° West 450 518 40,000  Level Cleveland Center
03:23PM 41.2519 -81.1300 277° West 450 518 40,000  Level Cleveland Center
03:24PM 41.2697 -81.2903 278° West 445 512 40,000  Level Cleveland Center
03:25PM 41.2894 -81.4536 279° West 451 519 40,000  Level Cleveland Center
03:26PM 41.3069 -81.6197 278° West 451 519 40,000  Level Cleveland Center
03:27PM 41.3219 -81.7858 277° West 451 519 40,000  Level Cleveland Center
03:28PM 41.3389 -81.9494 278° West 451 519 40,000  Level Cleveland Center
03:29PM 41.3556 -82.1128 278° West 451 519 40,000  Level Cleveland Center
03:30PM 41.3658 -82.2819 275° West 457 526 40,000  Level Cleveland Center
03:31PM 41.3736 -82.4481 274° West 457 526 40,000  Level Cleveland Center
03:32PM 41.3833 -82.6144 275° West 457 526 40,000  Level Cleveland Center
03:33PM 41.3928 -82.7808 274° West 457 526 40,000  Level Cleveland Center
03:34PM 41.3981 -82.9278 273° West 457 526 40,000  Level Cleveland Center
03:35PM 41.4092 -83.0914 275° West 457 526 40,000  Level Cleveland Center
03:36PM 41.4139 -83.2550 272° West 457 526 40,000  Level Cleveland Center
03:37PM 41.4244 -83.4161 275° West 444 511 40,000  Level Cleveland Center
03:38PM 41.4331 -83.5772 274° West 444 511 40,000  Level Cleveland Center
03:39PM 41.4389 -83.7436 273° West 444 511 40,000  Level Cleveland Center
03:40PM 41.4447 -83.9047 273° West 444 511 40,000  Level Cleveland Center
03:42PM 41.4633 -84.2119 275° West 438 504 40,000  Level Chicago Center
03:43PM 41.4708 -84.4044 273° West 436 502 40,000  Level Chicago Center
03:44PM 41.4775 -84.5636 273° West 432 497 40,000  Level Chicago Center
03:45PM 41.4833 -84.7219 273° West 429 494 40,000  Level Chicago Center
03:46PM 41.4894 -84.8800 273° West 429 494 40,000  Level Chicago Center
03:47PM 41.4947 -85.0397 273° West 429 494 40,000  Level Chicago Center
03:48PM 41.4947 -85.2028 270° West 436 502 40,000  Level Chicago Center
03:49PM 41.4928 -85.3656 269° West 434 499 40,000  Level Chicago Center
03:50PM 41.4947 -85.5292 271° West 429 494 40,000  Level Chicago Center
03:51PM 41.4944 -85.7197 270° West 425 489 40,000  Level Chicago Center
03:52PM 41.4939 -85.8769 270° West 424 488 40,000  Level Chicago Center
03:53PM 41.4936 -86.0336 270° West 423 487 40,000  Level Chicago Center
03:54PM 41.4919 -86.1892 269° West 423 487 40,000  Level Chicago Center
03:55PM 41.4911 -86.3467 270° West 426 490 40,000  Level Chicago Center
03:56PM 41.4906 -86.5031 270° West 426 490 40,000  Level Chicago Center
03:57PM 41.4886 -86.6964 269° West 435 501 40,000  Level Chicago Center
03:58PM 41.4864 -86.8539 269° West 425 489 40,000  Level Chicago Center
03:59PM 41.4856 -87.0133 270° West 432 497 40,000  Level Chicago Center
04:00PM 41.4825 -87.1739 269° West 435 501 40,000  Level Chicago Center
04:02PM 41.4800 -87.3328 269° West 434 499 40,000  Level Chicago Center
04:03PM 41.4783 -87.5208 269° West 428 493 40,000  Level Chicago Center
04:04PM 41.4758 -87.6750 269° West 422 486 40,000  Level Chicago Center
04:05PM 41.4728 -87.8286 269° West 418 481 40,000  Level Chicago Center
04:06PM 41.4686 -87.9878 268° West 421 484 40,000  Level Chicago Center
04:07PM 41.4689 -88.1433 270° West 422 486 40,000  Level Chicago Center
04:08PM 41.4619 -88.3089 267° West 415 478 40,000  Level Chicago Center
04:09PM 41.4581 -88.4642 268° West 422 486 40,000  Level Chicago Center
04:10PM 41.4536 -88.6181 268° West 421 484 40,000  Level Chicago Center
04:11PM 41.4486 -88.8022 268° West 418 481 40,000  Level Chicago Center
04:12PM 41.4444 -88.9567 268° West 421 484 40,000  Level Chicago Center
04:13PM 41.4389 -89.1111 267° West 420 483 40,000  Level Chicago Center
04:14PM 41.4364 -89.2567 269° West 421 484 40,000  Level Chicago Center
04:15PM 41.4306 -89.4411 268° West 418 481 40,000  Level Chicago Center
04:16PM 41.4247 -89.5936 267° West 416 479 40,000  Level Chicago Center
04:18PM 41.4144 -89.8961 268° West 411 473 40,000  Level Chicago Center
04:19PM 41.4089 -90.0461 267° West 410 472 40,000  Level Chicago Center
04:20PM 41.4022 -90.1972 267° West 411 473 40,000  Level Chicago Center
04:21PM 41.3950 -90.3767 267° West 408 470 40,000  Level Chicago Center
04:22PM 41.3886 -90.5264 267° West 408 470 40,000  Level Chicago Center
04:23PM 41.3806 -90.6797 266° West 415 478 40,000  Level Chicago Center
04:24PM 41.3744 -90.8294 267° West 407 468 40,000  Level Chicago Center
04:25PM 41.3678 -90.9806 267° West 409 471 40,000  Level Chicago Center
04:26PM 41.3589 -91.1597 266° West 407 468 40,000  Level Chicago Center
04:27PM 41.3506 -91.3103 266° West 410 472 40,000  Level Chicago Center
04:28PM 41.3433 -91.4628 266° West 409 471 40,000  Level Chicago Center
04:29PM 41.3356 -91.6142 266° West 412 474 40,000  Level Chicago Center
04:30PM 41.3278 -91.7644 266° West 412 474 40,000  Level Chicago Center
04:32PM 41.3192 -91.9153 266° West 413 475 40,000  Level Chicago Center
04:33PM 41.3092 -92.0972 266° West 413 475 40,000  Level Chicago Center
04:34PM 41.2994 -92.2486 265° West 414 476 40,000  Level Chicago Center
04:35PM 41.2906 -92.4178 266° West 419 482 40,000  Level Chicago Center
04:36PM 41.2811 -92.5700 265° West 419 482 40,000  Level Chicago Center
04:37PM 41.2714 -92.7233 265° West 419 482 40,000  Level Minneapolis Center
04:38PM 41.2622 -92.8750 265° West 417 480 40,000  Level Minneapolis Center
04:39PM 41.2522 -93.0278 265° West 418 481 40,000  Level Minneapolis Center
04:40PM 41.2419 -93.1797 265° West 420 483 40,000  Level Minneapolis Center
04:41PM 41.2306 -93.3617 265° West 418 481 40,000  Level Minneapolis Center
04:42PM 41.2189 -93.5114 264° West 413 475 40,000  Level Minneapolis Center
04:43PM 41.2103 -93.6581 266° West 407 468 40,000  Level Minneapolis Center
04:44PM 41.2011 -93.8083 265° West 411 473 40,000  Level Minneapolis Center
04:45PM 41.1903 -93.9586 265° West 413 475 40,000  Level Minneapolis Center
04:46PM 41.1764 -94.1403 264° West 415 478 40,000  Level Minneapolis Center
04:47PM 41.1650 -94.2839 264° West 414 476 40,000  Level Minneapolis Center
04:48PM 41.1522 -94.4369 264° West 416 479 40,000  Level Minneapolis Center
04:50PM 41.1272 -94.7700 264° West 413 475 40,000  Level Minneapolis Center
04:51PM 41.1133 -94.9206 263° West 411 473 40,000  Level Minneapolis Center
04:52PM 41.1006 -95.0722 264° West 412 474 40,000  Level Minneapolis Center
04:53PM 41.0878 -95.2236 264° West 412 474 40,000  Level Minneapolis Center
04:54PM 41.0744 -95.3783 264° West 417 480 40,000  Level Minneapolis Center
04:55PM 41.0611 -95.5308 263° West 417 480 40,000  Level Minneapolis Center
04:56PM 41.0447 -95.7111 263° West 410 472 40,000  Level Minneapolis Center
04:57PM 41.0314 -95.8650 263° West 414 476 40,000  Level Minneapolis Center
04:58PM 41.0161 -96.0175 262° West 414 476 40,000  Level Minneapolis Center
04:59PM 41.0022 -96.1700 263° West 414 476 40,000  Level Minneapolis Center
05:00PM 40.9889 -96.3225 263° West 414 476 40,000  Level Minneapolis Center
05:01PM 40.9750 -96.4753 263° West 416 479 40,000  Level Minneapolis Center
05:02PM 40.9600 -96.6261 263° West 414 476 40,000  Level Minneapolis Center
05:04PM 40.9442 -96.7775 262° West 415 478 40,000  Level Minneapolis Center
05:05PM 40.9272 -96.9589 263° West 414 476 40,000  Level Minneapolis Center
05:06PM 40.9119 -97.1108 262° West 415 478 40,000  Level Minneapolis Center
05:07PM 40.8964 -97.2600 262° West 413 475 40,000  Level Minneapolis Center
05:08PM 40.8800 -97.4242 263° West 415 478 40,000  Level Minneapolis Center
05:09PM 40.8642 -97.5753 262° West 415 478 40,000  Level Minneapolis Center
05:10PM 40.8478 -97.7256 262° West 413 475 40,000  Level Minneapolis Center
05:11PM 40.8314 -97.8769 262° West 414 476 40,000  Level Minneapolis Center
05:12PM 40.8147 -98.0278 262° West 414 476 40,000  Level Minneapolis Center
05:13PM 40.7992 -98.1794 262° West 415 478 40,000  Level Minneapolis Center
05:14PM 40.7783 -98.3597 261° West 413 475 40,000  Level Minneapolis Center
05:15PM 40.7614 -98.5122 262° West 415 478 40,000  Level Minneapolis Center
05:16PM 40.7431 -98.6653 261° West 418 481 40,000  Level Minneapolis Center
05:17PM 40.7250 -98.8183 261° West 419 482 40,000  Level Minneapolis Center
05:18PM 40.7081 -98.9728 262° West 421 484 40,000  Level Minneapolis Center
05:19PM 40.6897 -99.1261 261° West 421 484 40,000  Level Minneapolis Center
05:20PM 40.6711 -99.2808 261° West 425 489 40,000  Level Denver Center
05:21PM 40.6528 -99.4331 261° West 421 484 40,000  Level Denver Center
05:22PM 40.6339 -99.5867 261° West 423 487 40,000  Level Denver Center
05:23PM 40.6142 -99.7400 260° West 424 488 40,000  Level Denver Center
05:24PM 40.5942 -99.9022 261° West 425 489 40,000  Level Denver Center
05:25PM 40.5750 -100.0489 260° West 424 488 40,000  Level Denver Center
05:26PM 40.5531 -100.2222 261° West 427 491 40,000  Level Denver Center
05:27PM 40.5333 -100.3703 260° West 427 491 40,000  Level Denver Center
05:28PM 40.5147 -100.5175 261° West 425 489 40,000  Level Denver Center
05:29PM 40.4917 -100.6914 260° West 429 494 40,000  Level Denver Center
05:30PM 40.4711 -100.8408 260° West 431 496 40,000  Level Denver Center
05:31PM 40.4472 -101.0144 260° West 430 495 40,000  Level Denver Center
05:32PM 40.4278 -101.1614 260° West 427 491 40,000  Level Denver Center
05:33PM 40.4072 -101.3081 260° West 427 491 40,000  Level Denver Center
05:34PM 40.3836 -101.4781 260° West 423 487 40,000  Level Denver Center
05:35PM 40.3622 -101.6236 259° West 423 487 40,000  Level Denver Center
05:36PM 40.3383 -101.7939 260° West 425 489 40,000  Level Denver Center
05:37PM 40.3178 -101.9397 260° West 424 488 40,000  Level Denver Center
05:38PM 40.2931 -102.1108 259° West 427 491 40,000  Level Denver Center
05:39PM 40.2711 -102.2567 259° West 425 489 40,000  Level Denver Center
05:41PM 40.2456 -102.4256 259° West 423 487 40,000  Level Denver Center
05:42PM 40.2239 -102.5692 259° West 422 486 40,000  Level Denver Center
05:43PM 40.2022 -102.7142 259° West 422 486 40,000  Level Denver Center
05:44PM 40.1806 -102.8561 259° West 418 481 40,000  Level Denver Center
05:45PM 40.1550 -103.0222 259° West 418 481 40,000  Level Denver Center
05:46PM 40.1292 -103.1869 258° West 415 478 40,000  Level Denver Center
05:47PM 40.1067 -103.3300 258° West 419 482 40,000  Level Denver Center
05:48PM 40.0800 -103.4953 258° West 418 481 40,000  Level Denver Center
05:49PM 40.0578 -103.6372 258° West 418 481 40,000  Level Denver Center
05:50PM 40.0314 -103.8033 258° West 431 496 40,000  Level Denver Center
05:51PM 40.0072 -103.9539 258° West 426 490 40,000  Level Denver Center
05:52PM 39.9819 -104.1064 258° West 429 494 40,000  Level Denver Center
05:54PM 39.9289 -104.4261 258° West 437 503 40,000  Level Denver Center
05:55PM 39.9031 -104.5803 258° West 437 503 40,000  Level Denver Center
05:56PM 39.8717 -104.7478 256° West 435 501 40,000  Level Denver Center
05:57PM 39.8392 -104.9097 255° West 444 511 40,000  Level Denver Center
05:58PM 39.8106 -105.0606 256° West 433 498 40,000  Level Denver Center
05:59PM 39.7819 -105.2119 256° West 432 497 40,000  Level Denver Center
06:00PM 39.7492 -105.3744 255° West 431 496 40,000  Level Denver Center
06:01PM 39.7192 -105.5258 256° West 430 495 40,000  Level Denver Center
06:02PM 39.6908 -105.6783 256° West 434 499 40,000  Level Denver Center
06:03PM 39.6589 -105.8200 254° West 427 491 40,000  Level Denver Center
06:04PM 39.6300 -105.9697 256° West 427 491 40,000  Level Denver Center
06:05PM 39.5992 -106.1214 255° West 435 501 40,000  Level Denver Center
06:06PM 39.5617 -106.3064 255° West 441 507 40,000  Level Denver Center
06:07PM 39.5297 -106.4611 255° West 444 511 40,000  Level Denver Center
06:08PM 39.4947 -106.6286 255° West 442 509 40,000  Level Denver Center
06:09PM 39.4639 -106.7761 255° West 448 516 40,000  Level Denver Center
06:10PM 39.4319 -106.9225 254° West 442 509 40,000  Level Denver Center
06:11PM 39.4003 -107.0953 257° West 442 509 40,000  Level Denver Center
06:12PM 39.3717 -107.2453 256° West 446 513 40,000  Level Denver Center
06:14PM 39.3039 -107.4022 241° Southwest 450 518 40,000  Level Denver Center
06:15PM 39.2300 -107.5264 232° Southwest 454 522 40,000  Level Denver Center
06:16PM 39.1486 -107.6725 234° Southwest 450 518 40,000  Level Denver Center
06:17PM 39.0792 -107.7969 234° Southwest 448 516 40,000  Level Denver Center
06:18PM 38.9997 -107.9394 234° Southwest 440 506 40,000  Level Denver Center
06:19PM 38.9208 -108.0808 234° Southwest 436 502 40,000  Level Denver Center
06:20PM 38.8411 -108.2208 234° Southwest 434 499 40,000  Level Denver Center
06:21PM 38.7736 -108.3408 234° Southwest 432 497 40,000  Level Denver Center
06:22PM 38.6939 -108.4819 234° Southwest 435 501 40,000  Level Denver Center
06:23PM 38.6256 -108.6017 234° Southwest 435 501 40,000  Level Denver Center
06:24PM 38.5564 -108.7236 234° Southwest 439 505 40,000  Level Denver Center
06:25PM 38.4758 -108.8631 234° Southwest 435 501 40,000  Level Denver Center
06:26PM 38.4072 -108.9828 234° Southwest 436 502 40,000  Level Denver Center
06:27PM 38.3261 -109.1222 233° Southwest 437 503 40,000  Level Denver Center
06:28PM 38.2572 -109.2414 234° Southwest 437 503 40,000  Level Denver Center
06:29PM 38.1761 -109.3783 233° Southwest 436 502 40,000  Level Denver Center
06:30PM 38.1075 -109.4958 233° Southwest 433 498 40,000 -480 Level Denver Center
06:31PM 38.0344 -109.6197 233° Southwest 428 493 39,100 -1,500 Descending Denver Center
06:32PM 37.9547 -109.7556 233° Southwest 431 496 36,900 -1,500 Descending Denver Center
06:33PM 37.8858 -109.8708 233° Southwest 429 494 36,000 -480 Descending Denver Center
06:34PM 37.8128 -109.9922 233° Southwest 452 520 36,000 -540 Level Denver Center
06:35PM 37.7308 -110.1303 233° Southwest 442 509 35,000 -1,320 Descending Denver Center
06:36PM 37.6606 -110.2475 233° Southwest 439 505 33,300 -2,280 Descending Denver Center
06:37PM 37.5756 -110.3881 233° Southwest 450 518 30,300 -3,060 Descending Denver Center
06:38PM 37.5022 -110.5106 233° Southwest 458 527 27,000 -3,000 Descending Denver Center
06:40PM 37.4147 -110.6517 232° Southwest 460 529 23,500 -3,120 Descending Denver Center
06:41PM 37.3247 -110.7956 232° Southwest 439 505 20,000 -2,880 Descending Denver Center
06:42PM 37.2564 -110.9047 232° Southwest 401 461 17,600 -2,520 Descending Denver Center
06:43PM 37.1933 -111.0075 232° Southwest 377 434 14,900 -2,820 Descending Denver Center
06:44PM 37.1333 -111.1017 231° Southwest 364 419 11,800 -2,400 Descending Denver Center
06:45PM 37.0658 -111.2083 232° Southwest 346 398 10,000 -900 Descending Denver Center
06:46PM 37.0228 -111.2789 233° Southwest 300 345 10,000  Level Denver Center